Portada
METAR-TAF:

METAR-TAF

Aeroports :

Trang, Tailàndia

latitud: 07-31N, longitud: 099-37E, altitud: 14 m

Observació

L'informe es va fer fa 2 hores i 12 minuts, a les 15:00 UTC
Vent 4 kt del Sud-Est
Temperatura 27°C
Humitat 89%
Pressió 1010 hPa
Visibilitat: 7000 m
Escasses núvols a una alçada de 2000 ft

METAR: VTST 211500Z 14004KT 7000 FEW020 27/25 Q1010 NOSIG

Hora: 00:12 (17:12 UTC)

Pronòstic

L'informe es va fer fa 6 hores i 12 minuts, a les 11:00 UTC
Pronòstic vàlid del 21 a les 12 UTC al 22 a les 12 UTC
Vent 6 kt del Sud-Oest
Visibilitat: 7000 m
Escasses núvols a una alçada de 2000 ft
Evolucionant progressivament
l' 21 a les 20 UTC al 21 a les 22 UTC
Visibilitat: 3000 m
boirina
Evolucionant progressivament
l' 22 a les 00 UTC al 22 a les 02 UTC
Vent 8 kt del Sud-Oest
Visibilitat 10 km o més

TAF: VTST 211100Z 2112/2212 22006KT 7000 FEW020 BECMG 2120/2122 3000 BR BECMG 2200/2202 22008KT 9999 NSW

Observacions i pronòstics meteorològics de més de 4000 aeroports (METAR i TAF).

Les estacions disponibles són els punts grocs i vermells al mapa.

Posi el ratolí al punt desitjat per veure el nom de l'estació.

Feu clic per veure les observacions i els pronòstics meteorològics.

Per canviar el mapa: feu clic els botons verds amb una creu de color negre per apropar; al botó verd amb un guió per allunyar la imatge; o en les fletxes verdes per a mapes adjacents.


METAR-TAF: